ACA183 CYYZ-CYVR
Flight info
| Callsign | ACA183 |
|---|---|
| Flight time | N/A |
| Altitude | 38000 |
| Route | URSAL4 KASED DCT VACAY DCT RIMBE DCT KP15G/N0484F400 DCT CENVI DCT KP21A DCT PETBO DCT MUSRA DCT BEVEL DCT AMENA DCT FIRNI DCT YXC DCT BOOTH CANUC5 |
| Aircraft | B789/H-SDE1E2E3FGHIJ2J3J4J5M1RWXY/LB1D1 |
Departure
| Time | 2026-05-03 23:39 |
|---|---|
| Airport | Toronto Pearson International Airport (CYYZ) |
Arrival
| Time | N/A |
|---|---|
| Airport | Vancouver International Airport (CYVR) |
| Time | Latitude | Longitude | Altitude | Speed | Heading |
|---|---|---|---|---|---|
| 2026-05-03 23:15 | 43.67612 | -79.61322 | 575 ft | 0 kts | 45° |
| 2026-05-03 23:26 | 43.67610 | -79.61325 | 574 ft | 3 kts | 45° |
| 2026-05-03 23:26 | 43.67596 | -79.61345 | 574 ft | 3 kts | 48° |
| 2026-05-03 23:26 | 43.67582 | -79.61365 | 574 ft | 3 kts | 39° |
| 2026-05-03 23:27 | 43.67565 | -79.61377 | 575 ft | 3 kts | 13° |
| 2026-05-03 23:27 | 43.67545 | -79.61382 | 573 ft | 3 kts | 3° |
| 2026-05-03 23:27 | 43.67527 | -79.61384 | 569 ft | 1 kts | 343° |
| 2026-05-03 23:27 | 43.67519 | -79.61376 | 573 ft | 1 kts | 309° |
| 2026-05-03 23:28 | 43.67516 | -79.61367 | 573 ft | 0 kts | 300° |
| 2026-05-03 23:32 | 43.67533 | -79.61409 | 576 ft | 9 kts | 301° |
| 2026-05-03 23:32 | 43.67594 | -79.61496 | 574 ft | 17 kts | 315° |
| 2026-05-03 23:33 | 43.67665 | -79.61620 | 574 ft | 3 kts | 276° |
| 2026-05-03 23:33 | 43.67660 | -79.61634 | 576 ft | 3 kts | 239° |
| 2026-05-03 23:33 | 43.67639 | -79.61701 | 574 ft | 11 kts | 270° |
| 2026-05-03 23:33 | 43.67699 | -79.61811 | 570 ft | 21 kts | 316° |
| 2026-05-03 23:34 | 43.67838 | -79.61994 | 573 ft | 33 kts | 316° |
| 2026-05-03 23:34 | 43.67986 | -79.62119 | 568 ft | 19 kts | 318° |
| 2026-05-03 23:34 | 43.68081 | -79.62243 | 569 ft | 19 kts | 316° |
| 2026-05-03 23:34 | 43.68194 | -79.62391 | 573 ft | 27 kts | 316° |
| 2026-05-03 23:35 | 43.68335 | -79.62560 | 574 ft | 26 kts | 315° |
| 2026-05-03 23:35 | 43.68482 | -79.62753 | 575 ft | 30 kts | 316° |
| 2026-05-03 23:35 | 43.68627 | -79.62941 | 572 ft | 25 kts | 317° |
| 2026-05-03 23:35 | 43.68745 | -79.63094 | 574 ft | 26 kts | 316° |
| 2026-05-03 23:36 | 43.68891 | -79.63286 | 572 ft | 32 kts | 316° |
| 2026-05-03 23:36 | 43.69052 | -79.63499 | 573 ft | 22 kts | 317° |
| 2026-05-03 23:36 | 43.69124 | -79.63518 | 575 ft | 7 kts | 30° |
| 2026-05-03 23:36 | 43.69169 | -79.63459 | 575 ft | 13 kts | 44° |
| 2026-05-03 23:37 | 43.69251 | -79.63421 | 571 ft | 12 kts | 0° |
| 2026-05-03 23:37 | 43.69323 | -79.63420 | 572 ft | 0 kts | 1° |
| 2026-05-03 23:37 | 43.69334 | -79.63421 | 573 ft | 3 kts | 353° |
| 2026-05-03 23:37 | 43.69379 | -79.63449 | 572 ft | 12 kts | 323° |
| 2026-05-03 23:38 | 43.69400 | -79.63518 | 574 ft | 4 kts | 255° |
| 2026-05-03 23:38 | 43.69391 | -79.63539 | 572 ft | 2 kts | 230° |
| 2026-05-03 23:38 | 43.69383 | -79.63552 | 575 ft | 2 kts | 225° |
| 2026-05-03 23:38 | 43.69370 | -79.63569 | 573 ft | 3 kts | 225° |
| 2026-05-03 23:39 | 43.69306 | -79.63665 | 571 ft | 38 kts | 227° |
| 2026-05-03 23:39 | 43.68955 | -79.64174 | 577 ft | 107 kts | 226° |
| 2026-05-03 23:39 | 43.68302 | -79.65138 | 655 ft | 159 kts | 230° |
| 2026-05-03 23:39 | 43.67590 | -79.66295 | 1437 ft | 159 kts | 237° |
| 2026-05-03 23:40 | 43.67017 | -79.67633 | 2028 ft | 171 kts | 240° |
| 2026-05-03 23:40 | 43.66408 | -79.69132 | 2436 ft | 184 kts | 241° |
| 2026-05-03 23:40 | 43.65737 | -79.70635 | 3073 ft | 188 kts | 239° |
| 2026-05-03 23:40 | 43.64844 | -79.72044 | 3423 ft | 207 kts | 230° |
| 2026-05-03 23:41 | 43.64151 | -79.73813 | 3630 ft | 226 kts | 262° |
| 2026-05-03 23:41 | 43.64165 | -79.75964 | 4546 ft | 224 kts | 274° |
| 2026-05-03 23:41 | 43.64717 | -79.78009 | 5340 ft | 231 kts | 295° |
| 2026-05-03 23:41 | 43.65615 | -79.79863 | 6195 ft | 233 kts | 300° |